createdAt,value
2018-11-03T00:01:34.807Z,12.90
2018-11-03T00:04:03.118Z,14.43
2018-11-03T00:06:31.465Z,12.90
2018-11-03T00:08:59.823Z,13.37
2018-11-03T00:11:28.173Z,13.70
2018-11-03T00:13:56.501Z,13.20
2018-11-03T00:16:24.860Z,12.73
2018-11-03T00:18:53.212Z,13.23
2018-11-03T00:21:22.314Z,12.73
2018-11-03T00:23:50.708Z,13.40
2018-11-03T00:26:19.090Z,13.10
2018-11-03T00:28:47.452Z,12.87
2018-11-03T00:31:15.788Z,12.80
2018-11-03T00:33:44.132Z,12.63
2018-11-03T00:36:12.464Z,11.27
2018-11-03T00:38:40.827Z,12.33
2018-11-03T00:41:09.272Z,11.43
2018-11-03T00:43:37.612Z,12.13
2018-11-03T00:46:06.754Z,10.97
2018-11-03T00:48:35.090Z,12.17
2018-11-03T00:51:04.214Z,12.00
2018-11-03T00:53:32.614Z,11.43
2018-11-03T00:56:00.967Z,10.90
2018-11-03T00:58:29.305Z,10.80
2018-11-03T01:00:57.641Z,11.07
2018-11-03T01:03:25.977Z,11.63
2018-11-03T01:05:54.388Z,11.00
2018-11-03T01:08:22.731Z,12.60
2018-11-03T01:10:51.054Z,9.90
2018-11-03T01:13:19.397Z,11.60
2018-11-03T01:15:48.483Z,11.60
2018-11-03T01:18:16.893Z,12.60
2018-11-03T01:20:45.225Z,11.60
2018-11-03T01:23:13.656Z,11.10
2018-11-03T01:25:41.980Z,11.77
2018-11-03T01:28:10.307Z,11.03
2018-11-03T01:30:38.654Z,11.03
2018-11-03T01:33:07.760Z,11.23
2018-11-03T01:35:36.881Z,18.00
2018-11-03T01:38:05.266Z,31.63
2018-11-03T01:40:33.598Z,19.00
2018-11-03T01:43:01.933Z,11.67
2018-11-03T01:45:30.312Z,11.07
2018-11-03T01:47:58.675Z,10.50
2018-11-03T01:50:27.071Z,10.67
2018-11-03T01:52:55.432Z,11.27
2018-11-03T01:55:24.532Z,12.83
2018-11-03T01:57:52.874Z,11.60
2018-11-03T02:00:21.196Z,12.40
2018-11-03T02:02:49.591Z,11.00
2018-11-03T02:05:17.914Z,10.40
2018-11-03T02:07:46.326Z,11.03
2018-11-03T02:10:14.679Z,10.73
2018-11-03T02:12:43.010Z,11.33
2018-11-03T02:15:11.371Z,10.77
2018-11-03T02:17:39.728Z,11.07
2018-11-03T02:20:08.055Z,11.17
2018-11-03T02:22:36.397Z,11.73
2018-11-03T02:25:04.732Z,11.10
2018-11-03T02:27:33.162Z,10.97
2018-11-03T02:30:01.608Z,11.43
2018-11-03T02:32:29.936Z,11.57
2018-11-03T02:34:58.298Z,11.23
2018-11-03T02:37:26.674Z,11.10
2018-11-03T02:39:55.064Z,11.53
2018-11-03T02:42:23.393Z,11.33
2018-11-03T02:44:51.814Z,10.90
2018-11-03T02:47:20.196Z,11.93
2018-11-03T02:49:48.584Z,11.73
2018-11-03T02:52:16.944Z,11.70
2018-11-03T02:54:45.275Z,12.00
2018-11-03T02:57:13.612Z,12.20
2018-11-03T02:59:41.953Z,12.43
2018-11-03T03:02:10.391Z,12.67
2018-11-03T03:04:38.745Z,12.93
2018-11-03T03:07:07.126Z,13.33
2018-11-03T03:09:35.460Z,13.73
2018-11-03T03:12:03.816Z,13.07
2018-11-03T03:14:32.148Z,13.27
2018-11-03T03:17:01.245Z,12.70
2018-11-03T03:19:30.343Z,12.37
2018-11-03T03:21:58.708Z,12.80
2018-11-03T03:24:27.110Z,12.73
2018-11-03T03:26:55.506Z,13.27
2018-11-03T03:29:24.024Z,13.37
2018-11-03T03:31:52.298Z,12.50
2018-11-03T03:34:20.626Z,12.23
2018-11-03T03:36:49.015Z,11.90
2018-11-03T03:39:17.308Z,11.73
2018-11-03T03:41:45.648Z,12.03
2018-11-03T03:44:14.754Z,12.47
2018-11-03T03:46:43.105Z,11.77
2018-11-03T03:49:11.515Z,11.60
2018-11-03T03:51:40.034Z,12.70
2018-11-03T03:54:08.384Z,13.10
2018-11-03T03:56:36.707Z,13.57
2018-11-03T03:59:05.050Z,14.07
2018-11-03T04:01:33.414Z,13.20
2018-11-03T04:04:01.740Z,13.27
2018-11-03T04:06:30.102Z,12.90
2018-11-03T04:08:58.475Z,13.13
2018-11-03T04:11:26.834Z,13.33
2018-11-03T04:13:55.220Z,14.03
2018-11-03T04:16:23.554Z,14.00
2018-11-03T04:18:51.974Z,13.43
2018-11-03T04:21:20.296Z,14.20
2018-11-03T04:23:48.654Z,14.33
2018-11-03T04:26:16.974Z,14.43
2018-11-03T04:28:45.352Z,14.97
2018-11-03T04:31:13.658Z,14.23
2018-11-03T04:33:42.348Z,14.47
2018-11-03T04:36:10.675Z,14.27
2018-11-03T04:38:39.035Z,14.43
2018-11-03T04:41:07.365Z,14.93
2018-11-03T04:43:36.449Z,15.10
2018-11-03T04:46:04.790Z,14.70
2018-11-03T04:48:33.133Z,16.07
2018-11-03T04:51:01.470Z,16.60
2018-11-03T04:53:29.823Z,15.90
2018-11-03T04:55:58.272Z,17.37
2018-11-03T04:58:26.618Z,17.87
2018-11-03T05:00:54.959Z,17.27
2018-11-03T05:03:23.300Z,16.97
2018-11-03T05:05:51.698Z,16.20
2018-11-03T05:08:20.035Z,16.60
2018-11-03T05:10:48.446Z,16.33
2018-11-03T05:13:16.790Z,18.27
2018-11-03T05:15:45.131Z,18.57
2018-11-03T05:18:13.512Z,17.93
2018-11-03T05:20:41.859Z,18.13
2018-11-03T05:23:11.077Z,18.33
2018-11-03T05:25:39.422Z,17.07
2018-11-03T05:28:08.530Z,18.70
2018-11-03T05:30:37.642Z,19.53
2018-11-03T05:33:05.971Z,20.53
2018-11-03T05:35:34.326Z,20.20
2018-11-03T05:38:02.658Z,19.77
2018-11-03T05:40:31.800Z,17.83
2018-11-03T05:43:00.156Z,19.97
2018-11-03T05:45:28.492Z,19.47
2018-11-03T05:47:56.824Z,19.07
2018-11-03T05:50:25.172Z,20.87
2018-11-03T05:52:54.300Z,20.07
2018-11-03T05:55:22.690Z,19.63
2018-11-03T05:57:51.002Z,20.53
2018-11-03T06:00:20.839Z,20.63
2018-11-03T06:02:49.942Z,20.27
2018-11-03T06:05:18.288Z,19.30
2018-11-03T06:07:46.618Z,19.60
2018-11-03T06:10:14.976Z,19.37
2018-11-03T06:12:43.302Z,20.40
2018-11-03T06:15:11.846Z,20.80
2018-11-03T06:17:40.201Z,39.40
2018-11-03T06:20:09.323Z,23.37
2018-11-03T06:22:37.693Z,21.07
2018-11-03T06:25:06.096Z,20.47
2018-11-03T06:27:34.424Z,21.27
2018-11-03T06:30:02.766Z,21.43
2018-11-03T06:32:31.100Z,20.77
2018-11-03T06:35:01.278Z,20.17
2018-11-03T06:37:29.722Z,49.70
2018-11-03T06:39:58.085Z,46.33
2018-11-03T06:42:27.188Z,28.90
2018-11-03T06:44:55.526Z,21.60
2018-11-03T06:47:23.883Z,19.73
2018-11-03T06:49:52.771Z,21.00
2018-11-03T06:52:21.109Z,21.00
2018-11-03T06:54:49.514Z,21.07
2018-11-03T06:57:17.853Z,22.07
2018-11-03T06:59:46.170Z,22.00
2018-11-03T07:02:14.544Z,22.13
2018-11-03T07:04:42.892Z,23.83
2018-11-03T07:07:11.314Z,23.63
2018-11-03T07:09:39.672Z,22.43
2018-11-03T07:12:08.077Z,21.53
2018-11-03T07:14:36.338Z,21.37
2018-11-03T07:17:04.704Z,22.43
2018-11-03T07:19:33.037Z,22.47
2018-11-03T07:22:01.475Z,21.83
2018-11-03T07:24:29.844Z,24.20
2018-11-03T07:26:58.198Z,23.20
2018-11-03T07:29:26.606Z,24.13
2018-11-03T07:31:54.917Z,24.10
2018-11-03T07:34:23.273Z,28.23
2018-11-03T07:36:51.646Z,23.33
2018-11-03T07:39:20.050Z,23.13
2018-11-03T07:41:48.398Z,22.67
2018-11-03T07:44:16.723Z,23.00
2018-11-03T07:46:45.081Z,22.60
2018-11-03T07:49:13.589Z,22.13
2018-11-03T07:51:41.753Z,22.90
2018-11-03T07:54:10.126Z,22.90
2018-11-03T07:56:38.486Z,24.30
2018-11-03T07:59:06.862Z,23.23
2018-11-03T08:01:35.192Z,23.83
2018-11-03T08:04:03.554Z,23.50
2018-11-03T12:47:35.256Z,2.53
2018-11-03T12:50:03.586Z,2.83
2018-11-03T12:52:31.939Z,2.78
2018-11-03T12:55:01.067Z,2.55
2018-11-03T12:57:29.417Z,2.67
2018-11-03T12:59:58.557Z,2.67
2018-11-03T13:02:26.917Z,2.65
2018-11-03T13:04:55.293Z,2.72
2018-11-03T13:07:23.750Z,2.45
2018-11-03T13:09:52.085Z,2.78
2018-11-03T13:12:20.587Z,3.03
2018-11-03T13:14:49.571Z,2.97
2018-11-03T13:17:17.964Z,2.80
2018-11-03T13:19:46.333Z,2.72
2018-11-03T13:22:14.679Z,3.15
2018-11-03T13:24:43.038Z,3.12
2018-11-03T13:27:12.150Z,3.10
2018-11-03T13:29:40.557Z,3.20
2018-11-03T13:32:08.923Z,3.50
2018-11-03T13:34:37.304Z,3.42
2018-11-03T13:37:05.668Z,3.70
2018-11-03T13:39:34.006Z,3.58
2018-11-03T13:42:02.369Z,3.35
2018-11-03T13:44:30.736Z,4.80
2018-11-03T13:46:59.087Z,3.53
2018-11-03T13:49:27.450Z,3.75
2018-11-03T13:51:56.601Z,3.65
2018-11-03T13:54:24.956Z,3.80
2018-11-03T13:56:53.365Z,3.60
2018-11-03T13:59:21.711Z,3.95
2018-11-03T14:01:50.092Z,3.50
2018-11-03T14:04:18.453Z,3.50
2018-11-03T14:06:46.812Z,4.20
2018-11-03T14:09:15.932Z,4.00
2018-11-03T14:11:44.328Z,3.97
2018-11-03T14:14:12.726Z,4.43
2018-11-03T14:16:41.249Z,4.10
2018-11-03T14:19:10.572Z,3.87
2018-11-03T14:21:38.906Z,3.42
2018-11-03T14:24:07.380Z,3.90
2018-11-03T14:26:36.254Z,5.43
2018-11-03T14:29:04.725Z,40.95
2018-11-03T14:31:32.984Z,9.05
2018-11-03T14:34:01.403Z,4.65
2018-11-03T14:36:29.754Z,3.40
2018-11-03T14:38:58.152Z,4.12
2018-11-03T14:41:26.512Z,3.85
2018-11-03T14:43:54.864Z,3.60
2018-11-03T14:46:23.229Z,4.05
2018-11-03T14:48:52.353Z,4.12
2018-11-03T14:51:20.742Z,4.00
2018-11-03T14:53:49.263Z,3.87
2018-11-03T14:56:17.677Z,4.70
2018-11-03T14:58:45.999Z,4.63
2018-11-03T15:01:14.371Z,4.80
2018-11-03T15:03:42.739Z,4.90
2018-11-03T15:06:11.087Z,4.40
2018-11-03T15:08:40.259Z,4.33
2018-11-03T15:11:09.128Z,4.00
2018-11-03T15:13:37.512Z,4.13
2018-11-03T15:16:05.970Z,4.47
2018-11-03T15:18:34.350Z,4.70
2018-11-03T15:21:02.730Z,5.20
2018-11-03T15:23:31.064Z,4.80
2018-11-03T15:25:59.508Z,7.43
2018-11-03T15:28:27.870Z,10.60
2018-11-03T15:30:56.352Z,7.30
2018-11-03T15:33:24.800Z,5.50
2018-11-03T15:35:53.224Z,5.57
2018-11-03T15:38:21.589Z,5.67
2018-11-03T15:40:49.970Z,5.10
2018-11-03T15:43:18.298Z,4.53
2018-11-03T15:45:46.754Z,4.60
2018-11-03T15:48:15.107Z,4.70
2018-11-03T15:50:43.451Z,5.43
2018-11-03T15:53:11.904Z,5.70
2018-11-03T15:55:40.238Z,5.30
2018-11-03T15:58:08.609Z,6.33
2018-11-03T16:00:36.937Z,5.77
2018-11-03T16:03:05.289Z,5.60
2018-11-03T16:05:33.675Z,5.87
2018-11-03T16:08:02.060Z,5.77
2018-11-03T16:10:30.398Z,6.27
2018-11-03T16:12:59.618Z,5.47
2018-11-03T16:15:27.977Z,5.40
2018-11-03T16:17:57.065Z,6.30
2018-11-03T16:20:26.202Z,7.17
2018-11-03T16:22:54.749Z,6.03
2018-11-03T16:25:22.950Z,6.57
2018-11-03T16:27:51.294Z,7.00
2018-11-03T16:30:19.921Z,6.37
2018-11-03T16:32:48.389Z,6.83
2018-11-03T16:35:16.674Z,14.07
2018-11-03T16:37:45.773Z,53.23
2018-11-03T16:40:14.133Z,20.77
2018-11-03T16:42:42.493Z,10.20
2018-11-03T16:45:10.831Z,8.73
2018-11-03T16:47:39.185Z,8.10
2018-11-03T16:50:07.523Z,7.97
2018-11-03T16:52:35.939Z,7.87
2018-11-03T16:55:04.221Z,8.80
2018-11-03T16:57:32.597Z,7.80
2018-11-03T17:00:01.005Z,8.67
2018-11-03T17:02:29.436Z,8.20
2018-11-03T17:04:58.581Z,8.20
2018-11-03T17:07:26.928Z,8.00
2018-11-03T17:09:55.287Z,8.63
2018-11-03T17:12:24.483Z,9.47
2018-11-03T17:14:52.780Z,9.87
2018-11-03T17:17:22.086Z,9.30
2018-11-03T17:19:50.419Z,8.20
2018-11-03T17:22:18.866Z,9.33
2018-11-03T17:24:47.263Z,8.23
2018-11-03T17:27:15.633Z,8.50
2018-11-03T17:29:43.961Z,9.40
2018-11-03T17:32:12.507Z,8.87
2018-11-03T17:34:45.976Z,18.67
2018-11-03T17:37:14.352Z,36.57
2018-11-03T17:39:42.714Z,15.43
2018-11-03T17:42:11.045Z,13.07
2018-11-03T17:44:39.392Z,10.93
2018-11-03T17:47:07.758Z,10.73
2018-11-03T17:49:36.118Z,11.67
2018-11-03T17:52:05.282Z,11.87
2018-11-03T17:54:33.616Z,11.97
2018-11-03T17:57:01.984Z,11.90
2018-11-03T17:59:30.400Z,11.67
2018-11-03T18:01:58.760Z,12.23
2018-11-03T18:04:27.123Z,11.53
2018-11-03T18:06:55.464Z,12.80
2018-11-03T18:09:23.842Z,12.87
2018-11-03T18:11:52.214Z,15.07
2018-11-03T18:14:20.582Z,13.17
2018-11-03T18:16:48.942Z,14.60
2018-11-03T18:19:17.339Z,13.80
2018-11-03T18:21:45.731Z,12.37
2018-11-03T18:24:14.106Z,11.90
2018-11-03T18:26:42.591Z,25.80
2018-11-03T18:29:11.692Z,24.00
2018-11-03T18:31:40.073Z,16.33
2018-11-03T18:34:08.416Z,14.13
2018-11-03T18:36:36.825Z,13.10
2018-11-03T18:39:05.213Z,13.83
2018-11-03T18:41:33.625Z,12.20
2018-11-03T18:44:01.959Z,14.67
2018-11-03T18:46:30.545Z,13.60
2018-11-03T18:48:58.820Z,13.67
2018-11-03T18:51:27.181Z,13.43
2018-11-03T18:53:55.523Z,14.40
2018-11-03T18:56:23.969Z,15.83
2018-11-03T18:58:52.425Z,14.63
2018-11-03T19:01:20.763Z,14.10
2018-11-03T19:03:49.873Z,12.70
2018-11-03T19:06:18.212Z,11.37
2018-11-03T19:08:46.601Z,12.73
2018-11-03T19:11:15.027Z,12.30
2018-11-03T19:13:43.369Z,12.67
2018-11-03T19:16:11.804Z,11.73
2018-11-03T19:18:40.148Z,12.00
2018-11-03T19:21:08.567Z,11.37
2018-11-03T19:23:37.072Z,11.73
2018-11-03T19:26:05.402Z,11.77
2018-11-03T19:28:33.743Z,12.30
2018-11-03T19:31:02.856Z,11.00
2018-11-03T19:33:31.278Z,11.80
2018-11-03T19:35:59.724Z,12.23
2018-11-03T19:38:28.822Z,12.23
2018-11-03T19:40:58.085Z,11.07
2018-11-03T19:43:26.521Z,23.10
2018-11-03T19:45:54.865Z,43.37
2018-11-03T19:48:24.097Z,27.33
2018-11-03T19:50:52.504Z,17.30
2018-11-03T19:53:20.865Z,15.47
2018-11-03T19:55:49.249Z,14.40
2018-11-03T19:58:17.553Z,12.30
2018-11-03T20:00:46.061Z,12.50
2018-11-03T20:03:14.530Z,12.97
2018-11-03T20:05:42.886Z,13.37
2018-11-03T20:08:11.267Z,11.40
2018-11-03T20:10:39.625Z,12.23
2018-11-03T20:13:07.973Z,13.07
2018-11-03T20:15:37.081Z,11.80
2018-11-03T20:18:05.561Z,12.83
2018-11-03T20:20:33.822Z,12.30
2018-11-03T20:23:03.069Z,11.97
2018-11-03T20:25:31.427Z,18.20
2018-11-03T20:27:59.779Z,28.97
2018-11-03T20:30:28.903Z,24.70
2018-11-03T20:32:57.379Z,18.50
2018-11-03T20:35:25.739Z,17.57
2018-11-03T20:37:54.930Z,16.40
2018-11-03T20:40:23.357Z,15.03
2018-11-03T20:42:51.705Z,12.77
2018-11-03T20:45:20.084Z,12.60
2018-11-03T20:47:48.448Z,12.37
2018-11-03T20:50:16.810Z,13.23
2018-11-03T20:52:45.173Z,13.67
2018-11-03T20:55:13.677Z,13.60
2018-11-03T20:57:42.001Z,13.93
2018-11-03T21:00:10.397Z,13.87
2018-11-03T21:02:38.728Z,13.57
2018-11-03T21:05:07.085Z,14.37
2018-11-03T21:07:35.428Z,13.57
2018-11-03T21:10:03.917Z,13.47
2018-11-03T21:12:32.258Z,13.93
2018-11-03T21:15:00.680Z,15.27
2018-11-03T21:17:29.073Z,14.03
2018-11-03T21:19:57.463Z,15.43
2018-11-03T21:22:25.808Z,14.97
2018-11-03T21:24:54.153Z,15.60
2018-11-03T21:27:23.469Z,15.37
2018-11-03T21:29:51.843Z,15.17
2018-11-03T21:32:20.339Z,16.17
2018-11-03T21:34:48.611Z,15.03
2018-11-03T21:37:16.998Z,15.77
2018-11-03T21:39:45.348Z,15.07
2018-11-03T21:42:14.474Z,15.17
2018-11-03T21:44:42.866Z,15.40
2018-11-03T21:47:12.061Z,15.07
2018-11-03T21:49:40.411Z,14.97
2018-11-03T21:52:08.782Z,17.70
2018-11-03T21:54:37.893Z,23.23
2018-11-03T21:57:06.232Z,20.60
2018-11-03T21:59:35.393Z,18.17
2018-11-03T22:02:03.769Z,16.40
2018-11-03T22:04:32.145Z,15.80
2018-11-03T22:07:00.497Z,16.77
2018-11-03T22:09:28.899Z,16.40
2018-11-03T22:11:57.267Z,16.47
2018-11-03T22:14:25.785Z,16.37
2018-11-03T22:16:54.249Z,17.30
2018-11-03T22:19:22.617Z,17.40
2018-11-03T22:21:51.092Z,17.03
2018-11-03T22:24:19.323Z,16.83
2018-11-03T22:26:47.675Z,17.37
2018-11-03T22:29:16.015Z,18.30
2018-11-03T22:31:44.379Z,18.03
2018-11-03T22:34:13.499Z,19.20
2018-11-03T22:36:42.104Z,17.83
2018-11-03T22:39:10.435Z,18.57
2018-11-03T22:41:39.573Z,17.33
2018-11-03T22:44:07.983Z,18.73
2018-11-03T22:46:36.331Z,18.70
2018-11-03T22:49:04.803Z,16.83
2018-11-03T22:51:34.105Z,18.43
2018-11-03T22:54:02.447Z,21.80
2018-11-03T22:56:30.927Z,22.03
2018-11-03T22:58:59.392Z,19.87
2018-11-03T23:01:27.686Z,19.43
2018-11-03T23:03:57.061Z,18.93
2018-11-03T23:06:26.203Z,17.87
2018-11-03T23:08:54.562Z,17.80
2018-11-03T23:11:23.699Z,19.17
2018-11-03T23:13:52.133Z,16.47
2018-11-03T23:16:20.425Z,18.23
2018-11-03T23:18:48.778Z,18.67
2018-11-03T23:21:17.245Z,17.27
2018-11-03T23:23:45.840Z,18.53
2018-11-03T23:26:14.173Z,18.33
2018-11-03T23:28:42.561Z,18.47
2018-11-03T23:31:10.928Z,18.30
2018-11-03T23:33:39.275Z,18.47
2018-11-03T23:36:07.705Z,18.30
2018-11-03T23:38:36.047Z,18.10
2018-11-03T23:41:04.441Z,18.27
2018-11-03T23:43:33.557Z,18.47
2018-11-03T23:46:01.907Z,17.83
2018-11-03T23:48:31.015Z,18.17
2018-11-03T23:50:59.521Z,18.80
2018-11-03T23:53:27.946Z,20.23
2018-11-03T23:55:57.003Z,18.47
2018-11-03T23:58:25.336Z,18.17
